Park Ridge, IL

2:17 AM CST en Enero 29, 2015 (GMT -0600)
Du Page | Change Station
CLOSE
Current Station
Aeropuerto
Location: Chicago DuPage,
Altura: 758 ft
Estaciones meteorológicas cercanas

Alt 758 ft 41.90 °N, 88.25 °W | Updated 25 minutes ago

Nublado
Nublado
35 ° F
Sensación térmica 27 ° F
N
10
Viento Variable Viento desde SSE

Hoy
Alta -- | Baja -- ° F
--% Posibilidad de precipitaciones
Ayer
Alta -- | Baja -- ° F
Precip. -- pul
7:07 AM 5:02 PM
Gibosa creciente, 72% visible
Presión 29.76 pul
Visibilidad 10.0 Millas
Nubes Nublado 9000 ft
Vientos helados 27 ° F
Punto de rocío 27 ° F
Humedad 72%
Precipitaciones 0.00 pul
Espesor de la nieve No disponible.
UV 0 de una escala de 12
Polen .10 de una escala de 12
Calidad del aire No disponible.
Flu Activity No disponible.
METAR KDPA 290752Z 16009KT 10SM OVC090 02/M03 A2974 RMK AO2 SLP076 T00171028

More Conditions Fewer Conditions

Presión 29.76 pul
Visibilidad 10.0 Millas
Nubes Nublado 9000 ft
Vientos helados 27 ° F
Punto de rocío 27 ° F
Humedad 72%
Precipitaciones 0.00 pul
Espesor de la nieve No disponible.
UV 0 de una escala de 12
Polen .10 de una escala de 12
Calidad del aire No disponible.
Flu Activity No disponible.
METAR KDPA 290752Z 16009KT 10SM OVC090 02/M03 A2974 RMK AO2 SLP076 T00171028

More Conditions Fewer Conditions

10-Day Weather Forecast

Almanac

Astronomía

Jan. 29, 2015 Salida Puesta
Hora real
Crepúsculo civil
Crepúsculo náutico
Crepúsculo astronómico
Luna
Horas de luz
Horas de luz
Tomorrow will be .
, % of the Moon is Illuminated

Extremos de hoy

Máximos del estado Bajos del estado

Community

WunderPhotos

Upload Photos

1,791,387 ¡fotos cargadas!

WunderBlogs® & News

Nearby

Calidad del aire

  Calidad del aire Índice AQ Contaminante
Not available.

Grosos de nieve

Estación Profundido Altura

Actividad de terremotos

Ciudad Distance Mag. Tiempo y dato
Magnitud mínima muestra es 2,5.

Temperaturas de aguas costeras

Lugar Temperatura

Estaciones meteorológicas cercanas